Terminal Aerodrome Forecast
Issued by NWS

Home | Current Version | Previous Version | Text Only | Print | Product List | Glossary On
Versions: 1 2 3 4 5 6 7 8 9 10 11 12 13 14 15 16 17
000
FTUS44 KSJT 080500 RRA
TAFBBD
TAF
KBBD 080543Z 0806/0906 VRB06KT P6SM SHRA OVC020
      TEMPO 0806/0808 2SM +SHRA OVC015
     FM081000 VRB06KT P6SM -RA OVC015
     FM081500 17010KT P6SM OVC025
     FM082100 17010G16KT P6SM BKN150=

USA.gov is the U.S. government's official web portal to all federal, state and local government web resources and services.